Overview Statistics Trail Chart Weather Telemetry Raw packets
 

This is the latest recevied weather packets stored in our database for station/object VK6WB. If no packets are shown the sender has not sent any weather packets the latest 10 day(s).

<< 31 32 33 34 35 36 37 >>
Time Temp. Humidity Pressure Rain* Wind** Luminosity Snow
1777103404 22.78° C 45% 1015.8 hPa 0 mm - 10 W/m² -
1777102804 23.33° C 44% 1015.7 hPa 0 mm - 10 W/m² -
1777102205 23.33° C 43% 1015.7 hPa 0 mm - 10 W/m² -
1777101604 22.78° C 44% 1015.7 hPa 0 mm - 10 W/m² -
1777101004 22.78° C 42% 1015.7 hPa 0 mm - 10 W/m² -
1777100405 23.33° C 42% 1015.6 hPa 0 mm - 10 W/m² -
1777099804 23.33° C 41% 1015.7 hPa 0 mm - 10 W/m² -
1777099204 23.33° C 40% 1015.7 hPa 0 mm - 10 W/m² -
1777098605 23.89° C 39% 1015.7 hPa 0 mm - 10 W/m² -
1777098004 23.33° C 39% 1015.7 hPa 0 mm - 10 W/m² -
1777097404 23.33° C 39% 1015.9 hPa 0 mm - 10 W/m² -
1777096805 23.89° C 36% 1016 hPa 0 mm - 10 W/m² -
1777096204 24.44° C 31% 1016.2 hPa 0 mm - 10 W/m² -
1777095604 23.89° C 30% 1016.2 hPa 0 mm - 10 W/m² -
1777095004 23.33° C 32% 1016.3 hPa 0 mm - 10 W/m² -
1777094405 24.44° C 26% 1016.4 hPa 0 mm - 10 W/m² -
1777093804 24.44° C 22% 1016.5 hPa 0 mm - 10 W/m² -
1777093204 23.89° C 22% 1016.8 hPa 0 mm - 10 W/m² -
1777092604 23.89° C 21% 1016.9 hPa 0 mm - 10 W/m² -
1777092004 22.22° C 26% 1017.1 hPa 0 mm - 10 W/m² -
1777091404 22.22° C 22% 1017.2 hPa 0 mm - 10 W/m² -
1777090804 22.78° C 15% 1017.4 hPa 0 mm - 10 W/m² -
1777090204 24.44° C 10% 1017.6 hPa 0 mm - 10 W/m² -
1777089604 23.33° C 10% 1017.8 hPa 0 mm - 10 W/m² -
1777089004 23.33° C 10% 1018 hPa 0 mm - 10 W/m² -

* Rain latest hour (hover to see other rain measurements)
** Current wind speed in m/s (hover to see current wind gust speed)